EKRK/RKE METAR and TAF weather

Enter ICAO airport designator
Station Type Date Time Source
EKRK METAR 2019/12/14 05:50 UTC NOAA

EKRK 140550Z AUTO 16010KT 5000 -RA OVC008/// 02/01 Q0980


Station Type Date Time Source
EKRK Decoded METAR 2019/12/14 05:50 UTC NOAA

Koebenhavn / Roskilde, Denmark (EKRK) 55-35N 012-08E 44M
Dec 14, 2019 - 12:50 AM EST / 2019.12.14 0550 UTC
Wind: from the SSE (160 degrees) at 12 MPH (10 KT):0
Visibility: 3 mile(s):0
Sky conditions: overcast
Weather: light rain
Temperature: 35 F (2 C)
Windchill: 26 F (-3 C):1
Dew Point: 33 F (1 C)
Relative Humidity: 93%
Pressure (altimeter): 28.94 in. Hg (0980 hPa)
ob: EKRK 140550Z AUTO 16010KT 5000 -RA OVC008/// 02/01 Q0980
cycle: 6

Station Type Date Time Source
EKRK TAF UTC NOAA

Error!

Example: see airport list